Flight Track Log - Related Links

Times and Time Zones

All times are in EDT time to prevent confusion due to time zone crossing. See the DAL38 flight status page for this flight to view local times or setup timezone preferences in your user account.

Time Position Orientation Groundspeed Altitude Reporting Facility
EDT Latitude Longitude Course Direction KTS MPH feet Rate Location/Type
Sat 05:48:06 PM 33.6370 -84.4290 North 15 17  Level FlightAware ADS-B
Sat 05:48:51 PM 33.6370 -84.4300 270° West 84 Level FlightAware ADS-B
Sat 05:50:13 PM 33.6360 -84.4300 180° South 87 Level FlightAware ADS-B
Sat 05:51:49 PM 33.6340 -84.4300 73° East 24 28 93 Level FlightAware ADS-B
Sat 05:52:00 PM 33.7958 -84.2362 73° East  Level Estimated
Sat 05:52:10 PM 33.6330 -84.4300 180° South 32 37  Level FlightAware ADS-B
Sat 05:52:30 PM 33.6320 -84.4310 220° Southwest 34 39 103 Level FlightAware ADS-B
Sat 05:52:57 PM 33.6360 -84.4310 360° North 34 39 105 Level FlightAware ADS-B
Sat 05:54:54 PM 33.6320 -84.4370 73° East 21 24 108 Level FlightAware ADS-B
Sat 05:55:00 PM 33.8196 -84.2082 73° East  Level Estimated
Sat 05:55:37 PM 33.6310 -84.4400 248° West 30 35  Level FlightAware ADS-B
Sat 05:56:18 PM 33.6310 -84.4430 270° West 26 30 129 Level FlightAware ADS-B
Sat 05:56:59 PM 33.6310 -84.4450 270° West 22 25 135 Level FlightAware ADS-B
Sat 05:57:57 PM 33.6310 -84.4470 270° West 14 16 143 Level FlightAware ADS-B
Sat 05:58:37 PM 33.6310 -84.4480 270° West 15 17 155 Level FlightAware ADS-B
Sat 05:59:17 PM 33.6300 -84.4490 220° Southwest 10 12 164 Level FlightAware ADS-B
Sat 06:01:48 PM 33.6300 -84.4510 54° Northeast 18 21 174 Level FlightAware ADS-B
Sat 06:02:00 PM 33.8733 -84.1536 54° Northeast  Level Estimated
Sat 06:02:44 PM 33.6290 -84.4530 239° Southwest 15 17  Level FlightAware ADS-B
Sat 06:04:15 PM 33.6290 -84.4540 270° West 10 12 262 Level FlightAware ADS-B
Sat 06:04:36 PM 33.6290 -84.4550 270° West 17 20 336 Level FlightAware ADS-B
Sat 06:07:00 PM 33.8440 -84.1941 73° East  Level Estimated
Sat 06:08:00 PM 33.9334 -84.0850 54° Northeast  Level Estimated
Sat 06:08:32 PM 33.6270 -84.4580 54° Northeast 36 41  Level FlightAware ADS-B
Sat 06:09:02 PM 33.6260 -84.4410 94° East 165 190 1,688 Level FlightAware ADS-B
Sat 06:09:36 PM 33.6260 -84.4040 90° East 198 228 1,800 3,000 Climbing FlightAware ADS-B
Sat 06:09:48 PM 33.6260 -84.3910 90° East 198 228 2,300 1,350 Climbing FlightAware ADS-B
Sat 06:10:16 PM 33.6260 -84.3580 90° East 237 273 2,700 1,138 Climbing FlightAware ADS-B
Sat 06:10:46 PM 33.6260 -84.3170 90° East 262 302 3,400 2,250 Climbing FlightAware ADS-B
Sat 06:11:20 PM 33.6250 -84.2650 91° East 264 304 5,100 2,634 Climbing FlightAware ADS-B
Sat 06:12:08 PM 33.6250 -84.1980 90° East 272 313 7,000 2,385 Climbing FlightAware ADS-B
Sat 06:12:38 PM 33.6250 -84.1490 90° East 284 327 8,200 2,172 Climbing FlightAware ADS-B
Sat 06:13:06 PM 33.6320 -84.1050 79° East 296 341 9,100 1,857 Climbing FlightAware ADS-B
Sat 06:13:20 PM 33.6450 -84.0860 51° Northeast 297 342 9,500 1,889 Climbing FlightAware ADS-B
Sat 06:14:00 PM 33.6830 -84.0420 44° Northeast 309 356 10,800 1,429 Climbing FlightAware ADS-B
Sat 06:14:44 PM 33.7290 -83.9810 48° Northeast 351 404 11,500 1,055 Climbing FlightAware ADS-B
Sat 06:15:31 PM 33.7740 -83.9230 47° Northeast 373 429 12,400 1,326 Climbing FlightAware ADS-B
Sat 06:16:19 PM 33.8450 -83.8320 47° Northeast 415 478 13,600 1,685 Climbing FlightAware ADS-B
Sat 06:17:00 PM 33.8990 -83.7610 47° Northeast 428 493 14,900 1,884 Climbing FlightAware ADS-B
Sat 06:17:45 PM 33.9540 -83.6790 51° Northeast 440 506 16,300 2,022 Climbing FlightAware ADS-B
Sat 06:18:29 PM 34.0090 -83.5910 53° Northeast 445 512 17,900 2,071 Climbing FlightAware ADS-B
Sat 06:19:09 PM 34.0600 -83.5100 53° Northeast 451 519 19,200 1,800 Climbing FlightAware ADS-B
Sat 06:19:49 PM 34.1110 -83.4290 53° Northeast 457 526 20,300 1,608 Climbing FlightAware ADS-B
Sat 06:20:46 PM 34.1840 -83.3120 53° Northeast 465 535 21,800 1,620 Climbing FlightAware ADS-B
Sat 06:21:29 PM 34.2400 -83.2230 53° Northeast 466 536 23,000 1,465 Climbing FlightAware ADS-B
Sat 06:22:12 PM 34.2970 -83.1320 53° Northeast 476 548 23,900 1,215 Climbing FlightAware ADS-B
Sat 06:22:48 PM 34.3458 -83.0528 53° Northeast 486 559 24,600 1,244 Climbing FlightAware ADS-B
Sat 06:23:34 PM 34.4070 -82.9540 53° Northeast 491 565 25,600 1,412 Climbing FlightAware ADS-B
Sat 06:23:56 PM 34.4376 -82.9044 53° Northeast 490 564 26,200 1,714 Climbing FlightAware ADS-B
Sat 06:24:58 PM 34.5190 -82.7720 53° Northeast 483 556 28,000 1,671 Climbing FlightAware ADS-B
Sat 06:25:15 PM 34.5434 -82.7328 53° Northeast 483 556 28,400 1,448 Climbing FlightAware ADS-B
Sat 06:25:56 PM 34.5970 -82.6460 53° Northeast 481 554 29,400 1,575 Climbing FlightAware ADS-B
Sat 06:26:35 PM 34.6490 -82.5610 53° Northeast 474 545 30,500 1,143 Climbing FlightAware ADS-B
Sat 06:27:20 PM 34.7070 -82.4650 54° Northeast 479 551 31,000 476 Climbing FlightAware ADS-B
Sat 06:27:38 PM 34.7313 -82.4255 53° Northeast 478 550 31,000  Level FlightAware ADS-B
Sat 06:28:09 PM 34.7727 -82.3577 53° Northeast 479 551 31,000  Level FlightAware ADS-B
Sat 06:28:40 PM 34.8130 -82.2920 53° Northeast 478 550 31,000  Level FlightAware ADS-B
Sat 06:29:03 PM 34.8434 -82.2411 54° Northeast 478 550 31,000  Level FlightAware ADS-B
Sat 06:29:39 PM 34.8900 -82.1643 53° Northeast 478 550 31,000  Level FlightAware ADS-B
Sat 06:30:10 PM 34.9303 -82.0975 54° Northeast 477 549 31,000  Level FlightAware ADS-B
Sat 06:30:40 PM 34.9694 -82.0328 54° Northeast 475 547 31,000  Level FlightAware ADS-B
Sat 06:31:10 PM 35.0084 -81.9676 54° Northeast 474 545 31,000  Level FlightAware ADS-B
Sat 06:31:41 PM 35.0465 -81.8994 56° Northeast 473 544 31,000  Level FlightAware ADS-B
Sat 06:32:13 PM 35.0851 -81.8273 57° Northeast 473 544 31,000  Level FlightAware ADS-B
Sat 06:32:44 PM 35.1225 -81.7569 57° Northeast 472 543 31,000  Level FlightAware ADS-B
Sat 06:33:14 PM 35.1580 -81.6895 57° Northeast 472 543 31,000  Level FlightAware ADS-B
Sat 06:33:45 PM 35.1940 -81.6217 57° Northeast 472 543 31,000  Level FlightAware ADS-B
Sat 06:34:21 PM 35.2368 -81.5406 57° Northeast 471 542 31,000  Level FlightAware ADS-B
Sat 06:35:04 PM 35.2875 -81.4440 57° Northeast 471 542 31,000  Level FlightAware ADS-B
Sat 06:35:46 PM 35.3367 -81.3504 57° Northeast 473 544 31,000  Level FlightAware ADS-B
Sat 06:36:18 PM 35.3745 -81.2783 57° Northeast 474 545 31,000  Level FlightAware ADS-B
Sat 06:37:17 PM 35.4340 -81.1650 57° Northeast 474 545 31,000  Level FlightAware ADS-B
Sat 06:37:38 PM 35.4694 -81.0967 58° Northeast 475 547 31,000  Level FlightAware ADS-B
Sat 06:38:11 PM 35.5010 -81.0350 58° Northeast 476 548 31,000  Level FlightAware ADS-B
Sat 06:39:00 PM 35.5650 -80.9120 57° Northeast 476 548 31,000  Level FlightAware ADS-B
Sat 06:39:37 PM 35.6090 -80.8280 57° Northeast 478 550 31,000 659 Level FlightAware ADS-B
Sat 06:40:22 PM 35.6620 -80.7260 57° Northeast 474 545 31,900 1,200 Climbing FlightAware ADS-B
Sat 06:41:02 PM 35.7080 -80.6350 58° Northeast 467 537 32,700 857 Climbing FlightAware ADS-B
Sat 06:41:39 PM 35.7500 -80.5540 57° Northeast 466 536 33,000 217 Climbing FlightAware ADS-B
Sat 06:42:25 PM 35.7970 -80.4630 57° Northeast 466 536 33,000  Level FlightAware ADS-B
Sat 06:43:03 PM 35.8340 -80.3900 58° Northeast 466 536 33,000  Level FlightAware ADS-B
Sat 06:43:52 PM 35.8810 -80.2960 58° Northeast 466 536 33,000  Level FlightAware ADS-B
Sat 06:44:36 PM 35.9540 -80.1550 57° Northeast 470 541 33,000  Level FlightAware ADS-B
Sat 06:45:13 PM 35.9900 -80.0830 58° Northeast 470 541 33,000  Level FlightAware ADS-B
Sat 06:46:11 PM 36.0550 -79.9570 57° Northeast 471 542 33,000  Level FlightAware ADS-B
Sat 06:47:10 PM 36.1150 -79.8440 57° Northeast 471 542 33,000  Level FlightAware ADS-B
Sat 06:47:44 PM 36.1490 -79.7790 57° Northeast 471 542 33,000  Level FlightAware ADS-B
Sat 06:48:34 PM 36.1990 -79.6820 57° Northeast 471 542 33,000  Level FlightAware ADS-B
Sat 06:49:10 PM 36.2360 -79.6130 56° Northeast 471 542 33,000  Level FlightAware ADS-B
Sat 06:49:58 PM 36.2840 -79.5210 57° Northeast 471 542 33,000  Level FlightAware ADS-B
Sat 06:50:39 PM 36.3260 -79.4420 57° Northeast 471 542 33,000  Level FlightAware ADS-B
Sat 06:51:22 PM 36.4480 -79.2650 49° Northeast 33,000  Level FlightAware ADS-B
Sat 06:52:16 PM 36.5210 -79.1350 55° Northeast 33,000  Level FlightAware ADS-B
Sat 06:52:56 PM 36.5720 -79.0430 55° Northeast 463 533 33,000  Level FlightAware ADS-B
Sat 06:53:41 PM 36.6260 -78.9460 55° Northeast 462 532 33,000  Level FlightAware ADS-B
Sat 06:54:16 PM 36.6660 -78.8750 55° Northeast 462 532 33,000  Level FlightAware ADS-B
Sat 06:55:00 PM 36.7220 -78.7730 56° Northeast 468 539 33,000  Level FlightAware ADS-B
Sat 06:55:46 PM 36.7760 -78.6750 55° Northeast 463 533 33,000  Level FlightAware ADS-B
Sat 06:56:27 PM 36.8310 -78.5770 55° Northeast 467 537 33,000  Level FlightAware ADS-B
Sat 06:56:43 PM 36.8570 -78.5480 42° Northeast 454 522 33,000  Level FlightAware ADS-B
Sat 06:57:27 PM 36.9280 -78.4710 41° Northeast 457 526 33,000  Level FlightAware ADS-B
Sat 06:58:07 PM 36.9890 -78.4000 43° Northeast 459 528 33,000  Level FlightAware ADS-B
Sat 06:58:49 PM 37.0540 -78.3210 44° Northeast 458 527 33,000  Level FlightAware ADS-B
Sat 06:59:41 PM 37.1350 -78.2270 43° Northeast 456 525 33,000  Level FlightAware ADS-B
Sat 07:00:31 PM 37.2030 -78.1530 41° Northeast 456 525 33,000  Level FlightAware ADS-B
Sat 07:01:17 PM 37.2850 -78.0590 42° Northeast 455 524 33,000  Level FlightAware ADS-B
Sat 07:02:08 PM 37.3630 -77.9710 42° Northeast 454 522 33,000  Level FlightAware ADS-B
Sat 07:02:48 PM 37.4260 -77.8990 42° Northeast 455 524 33,000  Level FlightAware ADS-B
Sat 07:03:25 PM 37.4780 -77.8400 42° Northeast 454 522 33,000  Level FlightAware ADS-B
Sat 07:04:10 PM 37.5550 -77.7520 42° Northeast 453 521 33,000  Level FlightAware ADS-B
Sat 07:04:56 PM 37.6270 -77.6710 42° Northeast 454 522 33,000  Level FlightAware ADS-B
Sat 07:05:50 PM 37.7100 -77.5760 42° Northeast 453 521 33,000  Level FlightAware ADS-B
Sat 07:06:32 PM 37.7750 -77.5010 42° Northeast 451 519 33,000  Level FlightAware ADS-B
Sat 07:07:14 PM 37.8400 -77.4250 43° Northeast 450 518 33,000  Level FlightAware ADS-B
Sat 07:07:55 PM 37.9020 -77.3540 42° Northeast 448 516 33,000  Level FlightAware ADS-B
Sat 07:08:31 PM 37.9589 -77.2886 42° Northeast 447 514 33,000  Level FlightAware ADS-B
Sat 07:09:06 PM 38.0115 -77.2277 42° Northeast 445 512 33,000  Level FlightAware ADS-B
Sat 07:09:57 PM 38.0891 -77.1378 42° Northeast 443 510 33,000  Level FlightAware ADS-B
Sat 07:10:46 PM 38.1620 -77.0530 42° Northeast 441 507 33,000  Level FlightAware ADS-B
Sat 07:11:02 PM 38.1869 -77.0239 43° Northeast 442 509 33,000  Level FlightAware ADS-B
Sat 07:11:38 PM 38.2404 -76.9611 43° Northeast 439 505 33,000  Level FlightAware ADS-B
Sat 07:12:09 PM 38.2866 -76.9070 43° Northeast 439 505 33,000  Level FlightAware ADS-B
Sat 07:12:50 PM 38.3482 -76.8348 43° Northeast 439 505 33,000  Level FlightAware ADS-B
Sat 07:13:23 PM 38.3979 -76.7764 43° Northeast 440 506 33,000  Level FlightAware ADS-B
Sat 07:13:54 PM 38.4439 -76.7224 43° Northeast 441 507 33,000  Level FlightAware ADS-B
Sat 07:14:26 PM 38.4911 -76.6667 43° Northeast 440 506 33,000  Level FlightAware ADS-B
Sat 07:14:59 PM 38.5403 -76.6083 43° Northeast 439 505 33,000  Level FlightAware ADS-B
Sat 07:15:30 PM 38.5860 -76.5541 43° Northeast 439 505 33,000  Level FlightAware ADS-B
Sat 07:16:01 PM 38.6327 -76.4988 43° Northeast 438 504 33,000  Level FlightAware ADS-B
Sat 07:16:37 PM 38.6860 -76.4351 43° Northeast 437 503 33,000  Level FlightAware ADS-B
Sat 07:17:09 PM 38.7326 -76.3797 43° Northeast 437 503 33,000  Level FlightAware ADS-B
Sat 07:17:41 PM 38.7810 -76.3218 43° Northeast 439 505 33,000  Level FlightAware ADS-B
Sat 07:18:12 PM 38.8268 -76.2673 43° Northeast 439 505 33,000  Level FlightAware ADS-B
Sat 07:18:43 PM 38.8716 -76.2133 43° Northeast 440 506 33,000  Level FlightAware ADS-B
Sat 07:19:15 PM 38.9197 -76.1557 43° Northeast 441 507 33,000  Level FlightAware ADS-B
Sat 07:19:45 PM 38.9652 -76.1007 43° Northeast 441 507 33,000  Level FlightAware ADS-B
Sat 07:20:17 PM 39.0125 -76.0438 43° Northeast 441 507 33,000  Level FlightAware ADS-B
Sat 07:20:47 PM 39.0569 -75.9899 43° Northeast 441 507 33,000  Level FlightAware ADS-B
Sat 07:21:17 PM 39.1017 -75.9358 43° Northeast 441 507 33,000  Level FlightAware ADS-B
Sat 07:21:48 PM 39.1465 -75.8812 43° Northeast 441 507 33,000  Level FlightAware ADS-B
Sat 07:22:19 PM 39.1932 -75.8245 43° Northeast 442 509 33,000  Level FlightAware ADS-B
Sat 07:22:50 PM 39.2392 -75.7684 43° Northeast 442 509 33,000  Level FlightAware ADS-B
Sat 07:23:22 PM 39.2862 -75.7111 43° Northeast 444 511 33,000  Level FlightAware ADS-B
Sat 07:23:53 PM 39.3327 -75.6539 44° Northeast 445 512 33,000  Level FlightAware ADS-B
Sat 07:24:24 PM 39.3794 -75.5967 43° Northeast 447 514 33,000  Level FlightAware ADS-B
Sat 07:24:55 PM 39.4246 -75.5411 44° Northeast 447 514 33,000  Level FlightAware ADS-B
Sat 07:25:26 PM 39.4711 -75.4838 44° Northeast 449 517 33,000  Level FlightAware ADS-B
Sat 07:25:56 PM 39.5169 -75.4271 44° Northeast 450 518 33,000  Level FlightAware ADS-B
Sat 07:26:27 PM 39.5636 -75.3694 44° Northeast 450 518 33,000  Level FlightAware ADS-B
Sat 07:26:57 PM 39.6088 -75.3133 44° Northeast 451 519 33,000  Level FlightAware ADS-B
Sat 07:27:29 PM 39.6562 -75.2544 44° Northeast 451 519 33,000  Level FlightAware ADS-B
Sat 07:28:01 PM 39.7054 -75.1932 44° Northeast 452 520 33,000  Level FlightAware ADS-B
Sat 07:28:32 PM 39.7514 -75.1357 44° Northeast 453 521 33,000  Level FlightAware ADS-B
Sat 07:29:02 PM 39.7969 -75.0786 44° Northeast 453 521 33,000  Level FlightAware ADS-B
Sat 07:29:33 PM 39.8436 -75.0203 44° Northeast 453 521 33,000  Level FlightAware ADS-B
Sat 07:30:04 PM 39.8902 -74.9614 44° Northeast 453 521 33,000  Level FlightAware ADS-B
Sat 07:30:36 PM 39.9366 -74.8997 46° Northeast 456 525 33,000  Level FlightAware ADS-B
Sat 07:31:06 PM 39.9801 -74.8368 48° Northeast 457 526 33,000  Level FlightAware ADS-B
Sat 07:31:37 PM 40.0226 -74.7748 48° Northeast 457 526 33,000  Level FlightAware ADS-B
Sat 07:32:07 PM 40.0650 -74.7135 48° Northeast 455 524 33,000  Level FlightAware ADS-B
Sat 07:32:35 PM 40.1051 -74.6559 48° Northeast 455 524 33,000  Level FlightAware ADS-B
Sat 07:33:05 PM 40.1476 -74.5947 48° Northeast 454 522 33,000  Level FlightAware ADS-B
Sat 07:33:36 PM 40.1908 -74.5325 48° Northeast 452 520 33,000  Level FlightAware ADS-B
Sat 07:34:07 PM 40.2345 -74.4694 48° Northeast 452 520 33,000  Level FlightAware ADS-B
Sat 07:34:38 PM 40.2780 -74.4064 48° Northeast 452 520 33,000  Level FlightAware ADS-B
Sat 07:35:09 PM 40.3218 -74.3425 48° Northeast 453 521 33,000  Level FlightAware ADS-B
Sat 07:35:40 PM 40.3641 -74.2808 48° Northeast 452 520 33,000  Level FlightAware ADS-B
Sat 07:36:13 PM 40.4109 -74.2124 48° Northeast 450 518 33,000  Level FlightAware ADS-B
Sat 07:36:44 PM 40.4531 -74.1505 48° Northeast 447 514 33,000  Level FlightAware ADS-B
Sat 07:37:15 PM 40.4957 -74.0880 48° Northeast 444 511 33,000  Level FlightAware ADS-B
Sat 07:37:47 PM 40.5394 -74.0238 48° Northeast 442 509 33,000  Level FlightAware ADS-B
Sat 07:38:17 PM 40.5800 -73.9637 48° Northeast 440 506 33,000  Level FlightAware ADS-B
Sat 07:38:49 PM 40.6228 -73.9005 48° Northeast 438 504 33,000  Level FlightAware ADS-B
Sat 07:39:19 PM 40.6639 -73.8397 48° Northeast 438 504 33,000  Level FlightAware ADS-B
Sat 07:39:51 PM 40.7060 -73.7773 48° Northeast 436 502 33,000  Level FlightAware ADS-B
Sat 07:40:21 PM 40.7463 -73.7170 49° Northeast 437 503 33,000  Level FlightAware ADS-B
Sat 07:40:52 PM 40.7877 -73.6554 48° Northeast 438 504 33,000  Level FlightAware ADS-B
Sat 07:41:24 PM 40.8301 -73.5917 49° Northeast 439 505 33,000  Level FlightAware ADS-B
Sat 07:41:54 PM 40.8711 -73.5302 49° Northeast 441 507 33,000  Level FlightAware ADS-B
Sat 07:42:25 PM 40.9122 -73.4686 49° Northeast 444 511 33,000  Level FlightAware ADS-B
Sat 07:42:51 PM 40.9480 -73.4145 49° Northeast 444 511 33,000  Level FlightAware ADS-B
Sat 07:43:21 PM 40.9889 -73.3527 49° Northeast 444 511 33,000  Level FlightAware ADS-B
Sat 07:43:52 PM 41.0310 -73.2892 49° Northeast 445 512 33,000  Level FlightAware ADS-B
Sat 07:44:22 PM 41.0715 -73.2278 49° Northeast 445 512 33,000  Level FlightAware ADS-B
Sat 07:44:54 PM 41.1139 -73.1636 49° Northeast 444 511 33,000  Level FlightAware ADS-B
Sat 07:45:26 PM 41.1568 -73.0982 49° Northeast 443 510 33,000  Level FlightAware ADS-B
Sat 07:45:56 PM 41.1980 -73.0353 49° Northeast 442 509 33,000  Level FlightAware ADS-B
Sat 07:46:29 PM 41.2414 -72.9689 49° Northeast 442 509 33,000  Level FlightAware ADS-B
Sat 07:46:59 PM 41.2816 -72.9073 49° Northeast 441 507 33,000  Level FlightAware ADS-B
Sat 07:48:10 PM 41.3740 -72.7650 49° Northeast 440 506 33,000  Level FlightAware ADS-B
Sat 07:48:22 PM 41.3923 -72.7366 49° Northeast 440 506 33,000  Level FlightAware ADS-B
Sat 07:48:59 PM 41.4410 -72.6610 49° Northeast 441 507 33,000  Level FlightAware ADS-B
Sat 07:50:19 PM 41.5240 -72.4670 60° Northeast 468 539 33,000  Level FlightAware ADS-B
Sat 07:50:47 PM 41.5430 -72.4070 67° East 466 536 33,000  Level FlightAware ADS-B
Sat 07:51:53 PM 41.6000 -72.2260 67° East 468 539 33,000  Level FlightAware ADS-B
Sat 07:52:43 PM 41.6400 -72.0960 68° East 466 536 33,000  Level FlightAware ADS-B
Sat 07:53:42 PM 41.6900 -71.9350 67° East 461 531 33,000  Level FlightAware ADS-B
Sat 07:54:22 PM 41.7230 -71.8260 68° East 460 529 33,000  Level FlightAware ADS-B
Sat 07:55:02 PM 41.7550 -71.7230 67° East 455 524 33,000 72 Level FlightAware ADS-B
Sat 07:55:45 PM 41.7910 -71.6120 66° East 453 521 33,100 682 Climbing FlightAware ADS-B
Sat 07:56:30 PM 41.8270 -71.4980 67° East 447 514 34,000 600 Climbing FlightAware ADS-B
Sat 07:57:15 PM 41.8630 -71.3840 67° East 442 509 34,000  Level FlightAware ADS-B
Sat 07:57:55 PM 41.8960 -71.2790 67° East 442 509 34,000  Level FlightAware ADS-B
Sat 07:58:35 PM 41.9260 -71.1830 67° East 442 509 34,000  Level FlightAware ADS-B
Sat 07:59:20 PM 41.9600 -71.0750 67° East 443 510 34,000  Level FlightAware ADS-B
Sat 08:00:00 PM 41.9910 -70.9740 68° East 444 511 34,000  Level FlightAware ADS-B
Sat 08:00:40 PM 42.0260 -70.8610 67° East 444 511 34,000  Level FlightAware ADS-B
Sat 08:01:21 PM 42.0570 -70.7620 67° East 444 511 34,000  Level FlightAware ADS-B
Sat 08:02:05 PM 42.0920 -70.6490 67° East 446 513 34,000  Level FlightAware ADS-B
Sat 08:02:45 PM 42.1230 -70.5470 68° East 446 513 34,000  Level FlightAware ADS-B
Sat 08:03:30 PM 42.1600 -70.4260 68° East 447 514 34,000  Level FlightAware ADS-B
Sat 08:04:10 PM 42.1890 -70.3310 68° East 447 514 34,000  Level FlightAware ADS-B
Sat 08:04:51 PM 42.2240 -70.2180 67° East 447 514 34,000  Level FlightAware ADS-B
Sat 08:05:36 PM 42.2600 -70.0990 68° East 447 514 34,000  Level FlightAware ADS-B
Sat 08:06:21 PM 42.2940 -69.9840 68° East 449 517 34,000  Level FlightAware ADS-B
Sat 08:07:01 PM 42.3260 -69.8800 67° East 451 519 34,000  Level FlightAware ADS-B
Sat 08:07:41 PM 42.3540 -69.7860 68° East 453 521 34,000  Level FlightAware ADS-B
Sat 08:08:20 PM 42.3800 -69.6980 68° East 453 521 34,000  Level FlightAware ADS-B
Sat 08:09:03 PM 42.4200 -69.5630 68° East 453 521 34,000  Level FlightAware ADS-B
Sat 08:09:49 PM 42.4560 -69.4420 68° East 452 520 34,000  Level FlightAware ADS-B
Sat 08:10:25 PM 42.4770 -69.3700 68° East 452 520 34,000  Level FlightAware ADS-B
Sat 08:11:28 PM 42.5320 -69.1840 68° East 452 520 34,000  Level FlightAware ADS-B
Sat 08:12:09 PM 42.5630 -69.0770 68° East 451 519 34,000  Level FlightAware ADS-B
Sat 08:12:54 PM 42.5970 -68.9620 68° East 451 519 34,000  Level FlightAware ADS-B
Sat 08:13:34 PM 42.6220 -68.8720 69° East 451 519 34,000  Level FlightAware ADS-B
Sat 08:14:17 PM 42.6610 -68.7410 68° East 34,000  Level FlightAware ADS-B
Sat 08:14:38 PM 42.6667 -68.6667 68° East 450 518 34,000  Level Moncton Center
Sat 08:15:15 PM 42.7122 -68.5853 53° Northeast 438 504 34,000  Level Boston Center
Sat 08:20:51 PM 42.9610 -67.6850 53° Northeast 462 532 34,000  Level FlightAware ADS-B
Sat 08:21:35 PM 42.9930 -67.5690 69° East 466 536 34,000  Level FlightAware ADS-B
Sat 08:22:48 PM 43.0490 -67.3680 69° East 468 539 34,000  Level FlightAware ADS-B
Sat 08:23:44 PM 43.0880 -67.2270 69° East 469 540 34,000  Level FlightAware ADS-B
Sat 08:24:24 PM 43.1260 -67.0870 70° East 475 547 34,000  Level FlightAware ADS-B
Sat 08:25:00 PM 43.1580 -66.9910 65° Northeast 467 537 34,000  Level FlightAware ADS-B
Sat 08:25:40 PM 43.1900 -66.9000 64° Northeast 467 537 34,000  Level FlightAware ADS-B
Sat 08:26:28 PM 43.2290 -66.7920 64° Northeast 467 537 34,000  Level FlightAware ADS-B
Sat 08:27:11 PM 43.3080 -66.6700 48° Northeast 467 537 34,000  Level FlightAware ADS-B
Sat 08:28:00 PM 43.3680 -66.5420 57° Northeast 465 535 34,000  Level FlightAware ADS-B
Sat 08:28:46 PM 43.4200 -66.4310 57° Northeast 467 537 34,000  Level FlightAware ADS-B
Sat 08:29:25 PM 43.4670 -66.3290 58° Northeast 468 539 34,000  Level FlightAware ADS-B
Sat 08:30:20 PM 43.5330 -66.1890 57° Northeast 470 541 34,000  Level FlightAware ADS-B
Sat 08:31:11 PM 43.5920 -66.0610 57° Northeast 476 548 34,000  Level FlightAware ADS-B
Sat 08:31:50 PM 43.6390 -65.9580 58° Northeast 477 549 34,000  Level FlightAware ADS-B
Sat 08:32:32 PM 43.6860 -65.8550 58° Northeast 479 551 34,000  Level FlightAware ADS-B
Sat 08:33:16 PM 43.7400 -65.7370 58° Northeast 481 554 34,000  Level FlightAware ADS-B
Sat 08:33:56 PM 43.7880 -65.6330 57° Northeast 483 556 34,000  Level FlightAware ADS-B
Sat 08:34:36 PM 43.8340 -65.5290 58° Northeast 483 556 34,000  Level FlightAware ADS-B
Sat 08:35:20 PM 43.8870 -65.4120 58° Northeast 484 557 34,000  Level FlightAware ADS-B
Sat 08:35:56 PM 43.9290 -65.3190 58° Northeast 483 556 34,000  Level FlightAware ADS-B
Sat 08:36:45 PM 43.9880 -65.1880 58° Northeast 483 556 34,000  Level FlightAware ADS-B
Sat 08:37:26 PM 44.0360 -65.0810 58° Northeast 478 550 34,000  Level FlightAware ADS-B
Sat 08:38:11 PM 44.0880 -64.9640 58° Northeast 478 550 34,000  Level FlightAware ADS-B
Sat 08:38:50 PM 44.1340 -64.8620 58° Northeast 477 549 34,000  Level FlightAware ADS-B
Sat 08:39:31 PM 44.1810 -64.7530 59° Northeast 475 547 34,000  Level FlightAware ADS-B
Sat 08:40:14 PM 44.2270 -64.6490 58° Northeast 475 547 34,000  Level FlightAware ADS-B
Sat 08:40:50 PM 44.2560 -64.5830 58° Northeast 475 547 34,000  Level FlightAware ADS-B
Sat 08:41:35 PM 44.3250 -64.4250 59° Northeast 477 549 34,000  Level FlightAware ADS-B
Sat 08:42:17 PM 44.3750 -64.3110 58° Northeast 487 560 34,000  Level FlightAware ADS-B
Sat 08:42:45 PM 44.4060 -64.2380 59° Northeast 485 558 34,000  Level FlightAware ADS-B
Sat 08:43:42 PM 44.4700 -64.0900 59° Northeast 479 551 34,000  Level FlightAware ADS-B
Sat 08:44:26 PM 44.5210 -63.9720 59° Northeast 476 548 34,000  Level FlightAware ADS-B
Sat 08:45:09 PM 44.5710 -63.8540 59° Northeast 476 548 34,000  Level FlightAware ADS-B
Sat 08:45:49 PM 44.6160 -63.7490 59° Northeast 480 552 34,000  Level FlightAware ADS-B
Sat 08:46:36 PM 44.6650 -63.6320 59° Northeast 486 559 34,000  Level FlightAware ADS-B
Sat 08:47:26 PM 44.7230 -63.4960 59° Northeast 493 567 34,000  Level FlightAware ADS-B
Sat 08:48:08 PM 44.7720 -63.3790 59° Northeast 496 571 34,000  Level FlightAware ADS-B
Sat 08:48:50 PM 44.8220 -63.2580 60° Northeast 503 579 34,000  Level FlightAware ADS-B
Sat 08:49:51 PM 44.8900 -63.0940 60° Northeast 505 581 34,000  Level FlightAware ADS-B
Sat 08:50:28 PM 44.9270 -63.0040 60° Northeast 505 581 34,000  Level FlightAware ADS-B
Sat 08:51:16 PM 44.9880 -62.8570 60° Northeast 505 581 34,000  Level FlightAware ADS-B
Sat 08:51:52 PM 45.0240 -62.7690 60° Northeast 505 581 34,000  Level FlightAware ADS-B
Sat 08:52:54 PM 45.0850 -62.6190 60° Northeast 505 581 34,000  Level FlightAware ADS-B
Sat 08:53:30 PM 45.1210 -62.5310 60° Northeast 505 581 34,000  Level FlightAware ADS-B
Sat 08:54:32 PM 45.1830 -62.3800 60° Northeast 505 581 34,000  Level FlightAware ADS-B
Sat 08:55:11 PM 45.2210 -62.2840 61° Northeast 505 581 34,000  Level FlightAware ADS-B
Sat 08:55:53 PM 45.2630 -62.1820 60° Northeast 505 581 34,000  Level FlightAware ADS-B
Sat 08:56:29 PM 45.2990 -62.0940 60° Northeast 505 581 34,000  Level FlightAware ADS-B
Sat 08:57:17 PM 45.3460 -61.9760 60° Northeast 505 581 34,000  Level FlightAware ADS-B
Sat 08:57:53 PM 45.3820 -61.8880 60° Northeast 505 581 34,000  Level FlightAware ADS-B
Sat 08:58:44 PM 45.4330 -61.7630 60° Northeast 505 581 34,000  Level FlightAware ADS-B
Sat 08:59:20 PM 45.4680 -61.6750 60° Northeast 505 581 34,000  Level FlightAware ADS-B
Sat 09:00:08 PM 45.5160 -61.5570 60° Northeast 505 581 34,000  Level FlightAware ADS-B
Sat 09:01:29 PM 45.7000 -61.0550 62° Northeast 509 586 34,000  Level FlightAware ADS-B
Sat 09:02:11 PM 45.7470 -60.9300 62° Northeast 510 587 34,000  Level FlightAware ADS-B
Sat 09:02:55 PM 45.7970 -60.7990 61° Northeast 513 590 34,000  Level FlightAware ADS-B
Sat 09:03:35 PM 45.8420 -60.6790 62° Northeast 514 592 34,000  Level FlightAware ADS-B
Sat 09:04:19 PM 45.8920 -60.5470 61° Northeast 518 596 34,000  Level FlightAware ADS-B
Sat 09:04:59 PM 45.9370 -60.4250 62° Northeast 518 596 34,000  Level FlightAware ADS-B
Sat 09:05:43 PM 45.9860 -60.2910 62° Northeast 520 598 34,000  Level FlightAware ADS-B
Sat 09:06:23 PM 46.0320 -60.1670 62° Northeast 522 601 34,000  Level FlightAware ADS-B
Sat 09:07:05 PM 46.0780 -60.0410 62° Northeast 523 602 34,000  Level FlightAware ADS-B
Sat 09:07:45 PM 46.1230 -59.9160 63° Northeast 526 605 34,000  Level FlightAware ADS-B
Sat 09:08:29 PM 46.1730 -59.7800 62° Northeast 528 608 34,000  Level FlightAware ADS-B
Sat 09:09:11 PM 46.2190 -59.6500 63° Northeast 531 611 34,000  Level FlightAware ADS-B
Sat 09:09:55 PM 46.2690 -59.5100 63° Northeast 533 613 34,000  Level FlightAware ADS-B
Sat 09:10:36 PM 46.3130 -59.3880 62° Northeast 535 616 34,000  Level FlightAware ADS-B
Sat 09:10:59 PM 46.3410 -59.3080 63° Northeast 536 617 34,000  Level FlightAware ADS-B
Sat 09:11:57 PM 46.4080 -59.1200 63° Northeast 540 621 34,000  Level FlightAware ADS-B
Sat 09:12:37 PM 46.4530 -58.9900 63° Northeast 543 625 34,000  Level FlightAware ADS-B
Sat 09:13:21 PM 46.5030 -58.8460 63° Northeast 545 627 34,000  Level FlightAware ADS-B
Sat 09:14:01 PM 46.5470 -58.7180 63° Northeast 545 627 34,000  Level FlightAware ADS-B
Sat 09:14:43 PM 46.5940 -58.5830 63° Northeast 545 627 34,000  Level FlightAware ADS-B
Sat 09:15:25 PM 46.6420 -58.4410 64° Northeast 545 627 34,000  Level FlightAware ADS-B
Sat 09:16:09 PM 46.6910 -58.2970 64° Northeast 559 643 34,000  Level FlightAware ADS-B
Sat 09:16:49 PM 46.7370 -58.1610 64° Northeast 570 656 34,000  Level FlightAware ADS-B
Sat 09:18:02 PM 46.8170 -57.9280 63° Northeast 576 663 34,000  Level FlightAware ADS-B
Sat 09:18:38 PM 46.8540 -57.8210 63° Northeast 576 663 34,000  Level FlightAware ADS-B
Sat 09:19:26 PM 46.9040 -57.6800 63° Northeast 576 663 34,000  Level FlightAware ADS-B
Sat 09:20:02 PM 46.9410 -57.5730 63° Northeast 576 663 34,000  Level FlightAware ADS-B
Sat 09:20:45 PM 47.0110 -57.3300 67° East 580 667 34,000  Level FlightAware ADS-B
Sat 09:21:25 PM 47.0490 -57.2080 65° Northeast 580 667 34,000  Level FlightAware ADS-B
Sat 09:22:25 PM 47.1160 -56.9900 66° East 584 672 34,000  Level FlightAware ADS-B
Sat 09:23:07 PM 47.1670 -56.8250 66° East 586 674 34,000  Level FlightAware ADS-B
Sat 09:23:51 PM 47.2180 -56.6590 66° East 587 676 34,000  Level FlightAware ADS-B
Sat 09:24:31 PM 47.2620 -56.5130 66° East 588 677 34,000  Level FlightAware ADS-B
Sat 09:25:09 PM 47.3020 -56.3800 66° East 588 677 34,000  Level FlightAware ADS-B
Sat 09:25:59 PM 47.3540 -56.2100 66° East 589 678 34,000  Level FlightAware ADS-B
Sat 09:26:33 PM 47.3860 -56.1040 66° East 589 678 34,000  Level FlightAware ADS-B
Sat 09:27:22 PM 47.4320 -55.9510 66° East 589 678 34,000  Level FlightAware ADS-B
Sat 09:27:59 PM 47.4670 -55.8350 66° East 589 678 34,000  Level FlightAware ADS-B
Sat 09:28:45 PM 47.5390 -55.5850 67° East 584 672 34,000  Level FlightAware ADS-B
Sat 09:29:26 PM 47.5830 -55.4350 66° East 581 669 34,000  Level FlightAware ADS-B
Sat 09:30:11 PM 47.6310 -55.2700 67° East 581 669 34,000  Level FlightAware ADS-B
Sat 09:30:49 PM 47.6700 -55.1320 67° East 579 666 34,000  Level FlightAware ADS-B
Sat 09:31:29 PM 47.7130 -54.9840 67° East 578 665 34,000  Level FlightAware ADS-B
Sat 09:32:15 PM 47.7600 -54.8180 67° East 578 665 34,000  Level FlightAware ADS-B
Sat 09:32:51 PM 47.7970 -54.6860 67° East 579 666 34,000  Level FlightAware ADS-B
Sat 09:33:41 PM 47.8500 -54.5010 67° East 578 665 34,000  Level FlightAware ADS-B
Sat 09:34:21 PM 47.8900 -54.3560 68° East 578 665 34,000  Level FlightAware ADS-B
Sat 09:35:01 PM 47.9310 -54.2090 67° East 579 666 34,000  Level FlightAware ADS-B
Sat 09:35:43 PM 47.9740 -54.0540 67° East 579 666 34,000  Level FlightAware ADS-B
Sat 09:36:27 PM 48.0180 -53.8940 68° East 579 666 34,000  Level FlightAware ADS-B
Sat 09:37:11 PM 48.0640 -53.7280 67° East 581 669 34,000  Level FlightAware ADS-B
Sat 09:37:51 PM 48.1040 -53.5790 68° East 581 669 34,000  Level FlightAware ADS-B
Sat 09:38:29 PM 48.1420 -53.4390 68° East 581 669 34,000  Level FlightAware ADS-B
Sat 09:39:15 PM 48.1880 -53.2670 68° East 580 667 34,000  Level FlightAware ADS-B
Sat 09:39:57 PM 48.2280 -53.1170 68° East 579 666 34,000  Level FlightAware ADS-B
Sat 09:40:55 PM 48.2870 -52.8950 68° East 578 665 34,000  Level FlightAware ADS-B
Sat 09:41:35 PM 48.3260 -52.7460 68° East 578 665 34,000  Level FlightAware ADS-B
Sat 09:42:11 PM 48.3620 -52.6120 68° East 577 664 34,000  Level FlightAware ADS-B
Sat 09:42:55 PM 48.4040 -52.4480 69° East 576 663 34,000  Level FlightAware ADS-B
Sat 09:43:55 PM 48.4630 -52.2230 68° East 574 661 34,000  Level FlightAware ADS-B
Sat 09:44:39 PM 48.5040 -52.0630 69° East 572 658 34,000  Level FlightAware ADS-B
Sat 09:45:03 PM 48.5270 -51.9720 69° East 571 657 34,000  Level FlightAware ADS-B
Sat 09:45:57 PM 48.5780 -51.7720 69° East 569 655 34,000  Level FlightAware ADS-B
Sat 09:46:56 PM 48.6280 -51.5730 69° East 569 655 34,000  Level FlightAware ADS-B
Sat 09:47:31 PM 48.6560 -51.4620 69° East 569 655 34,000  Level FlightAware ADS-B
Sat 09:48:19 PM 48.6950 -51.3100 69° East 569 655 34,000  Level FlightAware ADS-B
Sat 09:48:56 PM 48.7240 -51.1930 69° East 569 655 34,000  Level FlightAware ADS-B
Sat 09:49:44 PM 48.7630 -51.0410 69° East 569 655 34,000  Level FlightAware ADS-B
Sat 09:50:22 PM 48.7930 -50.9200 69° East 569 655 34,000  Level FlightAware ADS-B
Sat 09:50:58 PM 48.8220 -50.8060 69° East 569 655 34,000  Level FlightAware ADS-B
Sat 09:51:46 PM 48.8610 -50.6540 69° East 569 655 34,000  Level FlightAware ADS-B
Sat 09:52:22 PM 48.8900 -50.5390 69° East 569 655 34,000  Level FlightAware ADS-B
Sat 09:53:10 PM 48.9280 -50.3870 69° East 569 655 34,000  Level FlightAware ADS-B
Sat 09:53:46 PM 48.9570 -50.2720 69° East 569 655 34,000  Level FlightAware ADS-B
Sat 09:54:34 PM 48.9950 -50.1200 69° East 569 655 34,000  Level FlightAware ADS-B
Sat 09:55:10 PM 49.0240 -50.0050 69° East 569 655 34,000  Level FlightAware ADS-B
Sat 09:56:02 PM 49.0660 -49.8390 69° East 569 655 34,000  Level FlightAware ADS-B
Sat 09:56:31 PM 49.0500 -49.2833 69° East 550 633 34,000  Level Gander Center
Sat 09:57:07 PM 49.0667 -49.1500 79° East 550 633 34,000  Level Gander Center
Sat 09:57:31 PM 49.1000 -49.0667 59° Northeast 550 633 34,000  Level Gander Center
Sat 09:58:31 PM 49.1167 -48.8333 84° East 550 633 34,000  Level Gander Center
Sat 09:59:07 PM 49.1333 -48.7000 79° East 550 633 34,000  Level Gander Center
Sat 09:59:31 PM 49.1500 -48.6167 73° East 550 633 34,000  Level Gander Center
Sat 10:00:31 PM 49.1833 -48.3833 78° East 550 633 34,000  Level Gander Center
Sat 10:01:31 PM 49.2167 -48.1333 78° East 550 633 34,000  Level Gander Center
Sat 10:02:07 PM 49.2333 -48.0333 76° East 550 633 34,000  Level Gander Center
Sat 10:03:07 PM 49.2667 -47.7833 78° East 550 633 34,000  Level Gander Center
Sat 10:03:31 PM 49.2667 -47.7167 90° East 550 633 34,000  Level Gander Center
Sat 10:04:07 PM 49.2833 -47.5667 80° East 550 633 34,000  Level Gander Center
Sat 10:05:07 PM 49.3167 -47.3333 78° East 540 621 34,000  Level Gander Center
Sat 10:05:31 PM 49.3167 -47.2500 90° East 540 621 34,000  Level Gander Center
Sat 10:06:31 PM 49.3500 -47.0167 78° East 540 621 34,000 Level Gander Center
Sat 10:09:00 PM 49.3978 -46.6269 79° East  Level FlightAware Approximate
Sat 10:16:00 PM 49.5639 -45.1718 79° East  Level FlightAware Approximate
Sat 10:17:00 PM 49.5861 -44.9632 81° East  Level FlightAware Approximate
Sat 10:18:00 PM 49.6080 -44.7543 81° East  Level FlightAware Approximate
Sat 10:19:00 PM 49.6295 -44.5453 81° East  Level FlightAware Approximate
Sat 10:20:00 PM 49.6506 -44.3361 81° East  Level FlightAware Approximate
Sat 10:21:00 PM 49.6713 -44.1267 81° East  Level FlightAware Approximate
Sat 10:22:00 PM 49.6916 -43.9171 81° East  Level FlightAware Approximate
Sat 10:23:00 PM 49.7116 -43.7074 82° East  Level FlightAware Approximate
Sat 10:24:00 PM 49.7312 -43.4975 82° East  Level FlightAware Approximate
Sat 10:25:00 PM 49.7504 -43.2874 82° East  Level FlightAware Approximate
Sat 10:26:00 PM 49.7692 -43.0772 82° East  Level FlightAware Approximate
Sat 10:27:00 PM 49.7877 -42.8667 82° East  Level FlightAware Approximate
Sat 10:28:00 PM 49.8058 -42.6562 82° East  Level FlightAware Approximate
Sat 10:29:00 PM 49.8234 -42.4455 83° East  Level FlightAware Approximate
Sat 10:30:00 PM 49.8408 -42.2346 83° East  Level FlightAware Approximate
Sat 10:31:00 PM 49.8577 -42.0235 83° East  Level FlightAware Approximate
Sat 10:32:00 PM 49.8742 -41.8124 83° East  Level FlightAware Approximate
Sat 10:33:00 PM 49.8904 -41.6011 83° East  Level FlightAware Approximate
Sat 10:34:00 PM 49.9061 -41.3896 83° East  Level FlightAware Approximate
Sat 10:35:00 PM 49.9215 -41.1780 83° East  Level FlightAware Approximate
Sat 10:36:00 PM 49.9365 -40.9663 84° East  Level FlightAware Approximate
Sat 10:37:00 PM 49.9511 -40.7545 84° East  Level FlightAware Approximate
Sat 10:38:00 PM 49.9654 -40.5425 84° East  Level FlightAware Approximate
Sat 10:39:00 PM 49.9792 -40.3304 84° East  Level FlightAware Approximate
Sat 10:40:00 PM 49.9927 -40.1181 84° East  Level FlightAware Approximate
Sat 10:41:00 PM 50.0129 -39.9075 78° East  Level FlightAware Approximate
Sat 10:42:00 PM 50.0417 -39.6988 78° East  Level FlightAware Approximate
Sat 10:43:00 PM 50.0701 -39.4898 78° East  Level FlightAware Approximate
Sat 10:44:00 PM 50.0982 -39.2807 78° East  Level FlightAware Approximate
Sat 10:45:00 PM 50.1259 -39.0713 78° East  Level FlightAware Approximate
Sat 10:46:00 PM 50.1532 -38.8616 78° East  Level FlightAware Approximate
Sat 10:47:00 PM 50.1801 -38.6517 79° East  Level FlightAware Approximate
Sat 10:48:00 PM 50.2066 -38.4416 79° East  Level FlightAware Approximate
Sat 10:49:00 PM 50.2328 -38.2312 79° East  Level FlightAware Approximate
Sat 10:50:00 PM 50.2586 -38.0206 79° East  Level FlightAware Approximate
Sat 10:51:00 PM 50.2840 -37.8098 79° East  Level FlightAware Approximate
Sat 10:52:00 PM 50.3090 -37.5988 79° East  Level FlightAware Approximate
Sat 10:53:00 PM 50.3346 -37.3878 79° East  Level FlightAware Approximate
Sat 10:54:00 PM 50.3602 -37.1767 79° East  Level FlightAware Approximate
Sat 10:55:00 PM 50.3855 -36.9654 79° East  Level FlightAware Approximate
Sat 10:56:00 PM 50.4103 -36.7539 79° East  Level FlightAware Approximate
Sat 10:57:00 PM 50.4348 -36.5421 80° East  Level FlightAware Approximate
Sat 10:58:00 PM 50.4589 -36.3301 80° East  Level FlightAware Approximate
Sat 10:59:00 PM 50.4826 -36.1179 80° East  Level FlightAware Approximate
Sat 11:00:00 PM 50.5059 -35.9055 80° East  Level FlightAware Approximate
Sat 11:01:00 PM 50.5289 -35.6929 80° East  Level FlightAware Approximate
Sat 11:02:00 PM 50.5514 -35.4801 80° East  Level FlightAware Approximate
Sat 11:03:00 PM 50.5736 -35.2671 81° East  Level FlightAware Approximate
Sat 11:04:00 PM 50.5954 -35.0539 81° East  Level FlightAware Approximate
Sat 11:05:00 PM 50.6167 -34.8405 81° East  Level FlightAware Approximate
Sat 11:06:00 PM 50.6377 -34.6269 81° East  Level FlightAware Approximate
Sat 11:07:00 PM 50.6583 -34.4131 81° East  Level FlightAware Approximate
Sat 11:08:00 PM 50.6786 -34.1991 81° East  Level FlightAware Approximate
Sat 11:09:00 PM 50.6984 -33.9850 82° East  Level FlightAware Approximate
Sat 11:10:00 PM 50.7178 -33.7706 82° East  Level FlightAware Approximate
Sat 11:11:00 PM 50.7372 -33.5562 82° East  Level FlightAware Approximate
Sat 11:12:00 PM 50.7563 -33.3416 82° East  Level FlightAware Approximate
Sat 11:13:00 PM 50.7749 -33.1268 82° East  Level FlightAware Approximate
Sat 11:14:00 PM 50.7931 -32.9118 82° East  Level FlightAware Approximate
Sat 11:15:00 PM 50.8109 -32.6967 82° East  Level FlightAware Approximate
Sat 11:16:00 PM 50.8284 -32.4814 83° East  Level FlightAware Approximate
Sat 11:17:00 PM 50.8454 -32.2660 83° East  Level FlightAware Approximate
Sat 11:18:00 PM 50.8621 -32.0504 83° East  Level FlightAware Approximate
Sat 11:19:00 PM 50.8783 -31.8347 83° East  Level FlightAware Approximate
Sat 11:20:00 PM 50.8942 -31.6188 83° East  Level FlightAware Approximate
Sat 11:21:00 PM 50.9096 -31.4028 83° East  Level FlightAware Approximate
Sat 11:22:00 PM 50.9247 -31.1866 84° East  Level FlightAware Approximate
Sat 11:23:00 PM 50.9393 -30.9702 84° East  Level FlightAware Approximate
Sat 11:24:00 PM 50.9536 -30.7538 84° East  Level FlightAware Approximate
Sat 11:25:00 PM 50.9674 -30.5372 84° East  Level FlightAware Approximate
Sat 11:26:00 PM 50.9809 -30.3205 84° East  Level FlightAware Approximate
Sat 11:27:00 PM 50.9939 -30.1037 84° East  Level FlightAware Approximate
Sat 11:28:00 PM 50.9936 -29.8867 95° East  Level FlightAware Approximate
Sat 11:29:00 PM 50.9812 -29.6698 95° East  Level FlightAware Approximate
Sat 11:30:00 PM 50.9683 -29.4530 95° East  Level FlightAware Approximate
Sat 11:31:00 PM 50.9550 -29.2363 95° East  Level FlightAware Approximate
Sat 11:32:00 PM 50.9413 -29.0198 96° East  Level FlightAware Approximate
Sat 11:33:00 PM 50.9272 -28.8033 96° East  Level FlightAware Approximate
Sat 11:34:00 PM 50.9128 -28.5870 96° East  Level FlightAware Approximate
Sat 11:35:00 PM 50.8979 -28.3709 96° East  Level FlightAware Approximate
Sat 11:36:00 PM 50.8826 -28.1549 96° East  Level FlightAware Approximate
Sat 11:37:00 PM 50.8669 -27.9390 96° East  Level FlightAware Approximate
Sat 11:38:00 PM 50.8508 -27.7233 97° East  Level FlightAware Approximate
Sat 11:39:00 PM 50.8344 -27.5077 97° East  Level FlightAware Approximate
Sat 11:40:00 PM 50.8175 -27.2923 97° East  Level FlightAware Approximate
Sat 11:41:00 PM 50.8002 -27.0770 97° East  Level FlightAware Approximate
Sat 11:42:00 PM 50.7826 -26.8619 97° East  Level FlightAware Approximate
Sat 11:43:00 PM 50.7645 -26.6470 97° East  Level FlightAware Approximate
Sat 11:44:00 PM 50.7461 -26.4322 98° East  Level FlightAware Approximate
Sat 11:45:00 PM 50.7272 -26.2176 98° East  Level FlightAware Approximate
Sat 11:46:00 PM 50.7080 -26.0032 98° East  Level FlightAware Approximate
Sat 11:47:00 PM 50.6883 -25.7890 98° East  Level FlightAware Approximate
Sat 11:48:00 PM 50.6683 -25.5749 98° East  Level FlightAware Approximate
Sat 11:49:00 PM 50.6479 -25.3610 98° East  Level FlightAware Approximate
Sat 11:50:00 PM 50.6271 -25.1473 99° East  Level FlightAware Approximate
Sat 11:51:00 PM 50.6059 -24.9338 99° East  Level FlightAware Approximate
Sat 11:52:00 PM 50.5843 -24.7205 99° East  Level FlightAware Approximate
Sat 11:53:00 PM 50.5623 -24.5074 99° East  Level FlightAware Approximate
Sat 11:54:00 PM 50.5399 -24.2945 99° East  Level FlightAware Approximate
Sat 11:55:00 PM 50.5172 -24.0818 99° East  Level FlightAware Approximate
Sat 11:56:00 PM 50.4940 -23.8693 100° East  Level FlightAware Approximate
Sat 11:57:00 PM 50.4705 -23.6570 100° East  Level FlightAware Approximate
Sat 11:58:00 PM 50.4466 -23.4449 100° East  Level FlightAware Approximate
Sat 11:59:00 PM 50.4223 -23.2331 100° East  Level FlightAware Approximate
Sun 12:00:00 AM 50.3976 -23.0214 100° East  Level FlightAware Approximate
Sun 12:01:00 AM 50.3725 -22.8100 100° East  Level FlightAware Approximate
Sun 12:02:00 AM 50.3471 -22.5988 101° East  Level FlightAware Approximate
Sun 12:03:00 AM 50.3212 -22.3878 101° East  Level FlightAware Approximate
Sun 12:04:00 AM 50.2950 -22.1771 101° East  Level FlightAware Approximate
Sun 12:05:00 AM 50.2684 -21.9666 101° East  Level FlightAware Approximate
Sun 12:06:00 AM 50.2415 -21.7563 101° East  Level FlightAware Approximate
Sun 12:07:00 AM 50.2141 -21.5463 101° East  Level FlightAware Approximate
Sun 12:08:00 AM 50.1864 -21.3365 102° East  Level FlightAware Approximate
Sun 12:09:00 AM 50.1583 -21.1270 102° East  Level FlightAware Approximate
Sun 12:10:00 AM 50.1298 -20.9177 102° East  Level FlightAware Approximate
Sun 12:11:00 AM 50.1009 -20.7087 102° East  Level FlightAware Approximate
Sun 12:12:00 AM 50.0717 -20.4999 102° East  Level FlightAware Approximate
Sun 12:13:00 AM 50.0421 -20.2913 102° East  Level FlightAware Approximate
Sun 12:14:00 AM 50.0121 -20.0831 103° East  Level FlightAware Approximate
Sun 12:15:00 AM 50.0238 -19.8773 73° East  Level FlightAware Approximate
Sun 12:16:00 AM 50.0632 -19.6728 73° East  Level FlightAware Approximate
Sun 12:17:00 AM 50.1022 -19.4679 73° East  Level FlightAware Approximate
Sun 12:18:00 AM 50.1409 -19.2627 74° East  Level FlightAware Approximate
Sun 12:19:00 AM 50.1791 -19.0572 74° East  Level FlightAware Approximate
Sun 12:20:00 AM 50.2171 -18.8514 74° East  Level FlightAware Approximate
Sun 12:21:00 AM 50.2546 -18.6452 74° East  Level FlightAware Approximate
Sun 12:22:00 AM 50.2918 -18.4387 74° East  Level FlightAware Approximate
Sun 12:23:00 AM 50.3287 -18.2319 74° East  Level FlightAware Approximate
Sun 12:24:00 AM 50.3651 -18.0247 74° East  Level FlightAware Approximate
Sun 12:25:00 AM 50.4012 -17.8173 75° East  Level FlightAware Approximate
Sun 12:26:00 AM 50.4369 -17.6095 75° East  Level FlightAware Approximate
Sun 12:27:00 AM 50.4723 -17.4014 75° East  Level FlightAware Approximate
Sun 12:28:00 AM 50.5073 -17.1931 75° East  Level FlightAware Approximate
Sun 12:29:00 AM 50.5419 -16.9844 75° East  Level FlightAware Approximate
Sun 12:30:00 AM 50.5761 -16.7754 75° East  Level FlightAware Approximate
Sun 12:31:00 AM 50.6100 -16.5660 76° East  Level FlightAware Approximate
Sun 12:32:00 AM 50.6435 -16.3564 76° East  Level FlightAware Approximate
Sun 12:33:00 AM 50.6766 -16.1465 76° East  Level FlightAware Approximate
Sun 12:34:00 AM 50.7093 -15.9363 76° East  Level FlightAware Approximate
Sun 12:35:00 AM 50.7417 -15.7259 76° East  Level FlightAware Approximate
Sun 12:36:00 AM 50.7736 -15.5151 76° East  Level FlightAware Approximate
Sun 12:37:00 AM 50.8052 -15.3040 77° East  Level FlightAware Approximate
Sun 12:38:00 AM 50.8364 -15.0927 77° East  Level FlightAware Approximate
Sun 12:39:00 AM 50.8671 -14.8810 77° East  Level FlightAware Approximate
Sun 12:40:00 AM 50.8973 -14.6690 77° East  Level FlightAware Approximate
Sun 12:41:00 AM 50.9271 -14.4567 77° East  Level FlightAware Approximate
Sun 12:42:00 AM 50.9566 -14.2442 78° East  Level FlightAware Approximate
Sun 12:43:00 AM 50.9856 -14.0314 78° East  Level FlightAware Approximate
Sun 12:44:00 AM 51.0142 -13.8183 78° East  Level FlightAware Approximate
Sun 12:45:00 AM 51.0435 -13.6053 78° East  Level FlightAware Approximate
Sun 12:46:00 AM 51.0724 -13.3921 78° East  Level FlightAware Approximate
Sun 12:47:00 AM 51.1010 -13.1786 78° East  Level FlightAware Approximate
Sun 12:48:00 AM 51.1292 -12.9648 78° East  Level FlightAware Approximate
Sun 12:49:00 AM 51.1570 -12.7508 78° East  Level FlightAware Approximate
Sun 12:50:00 AM 51.1844 -12.5365 78° East  Level FlightAware Approximate
Sun 12:51:00 AM 51.2114 -12.3220 79° East  Level FlightAware Approximate
Sun 12:51:48 AM 50.8880 -10.9190 79° East 505 581 35,000  Level FlightAware ADS-B
Sun 12:52:00 AM 51.2380 -12.1072 79° East  Level FlightAware Approximate
Sun 12:52:26 AM 50.9130 -10.8080 70° East 505 581 35,000  Level FlightAware ADS-B
Sun 12:53:28 AM 50.9640 -10.5850 70° East 507 583 35,000  Level FlightAware ADS-B
Sun 12:54:07 AM 50.9970 -10.4320 71° East 508 585 35,000  Level FlightAware ADS-B
Sun 12:54:48 AM 51.0290 -10.2920 70° East 510 587 35,000  Level FlightAware ADS-B
Sun 12:55:27 AM 51.0550 -10.1730 71° East 510 587 35,000  Level FlightAware ADS-B
Sun 12:56:12 AM 51.0940 -9.9950 71° East 511 588 35,000  Level FlightAware ADS-B
Sun 12:57:09 AM 51.1360 -9.8020 71° East 511 588 35,000  Level FlightAware ADS-B
Sun 12:57:52 AM 51.1720 -9.6360 71° East 512 589 35,000  Level FlightAware ADS-B
Sun 12:58:32 AM 51.2010 -9.4990 71° East 512 589 35,000  Level FlightAware ADS-B
Sun 12:59:30 AM 51.2470 -9.2860 71° East 513 590 35,000  Level FlightAware ADS-B
Sun 01:00:10 AM 51.2760 -9.1480 71° East 512 589 35,000  Level FlightAware ADS-B
Sun 01:00:50 AM 51.3070 -9.0010 71° East 513 590 35,000  Level FlightAware ADS-B
Sun 01:01:15 AM 51.3240 -8.9190 72° East 513 590 35,000  Level FlightAware ADS-B
Sun 01:01:32 AM 51.3282 -8.8717 72° East 464 534 35,000  Level FlightAware UK
Sun 01:02:00 AM 51.3590 -8.7500 72° East 515 593 35,000  Level FlightAware ADS-B
Sun 01:02:02 AM 51.3505 -8.7645 72° East 464 534 35,000  Level FlightAware UK
Sun 01:02:32 AM 51.3728 -8.6571 72° East 464 534 35,000  Level FlightAware UK
Sun 01:02:45 AM 51.3920 -8.5910 72° East 516 594 35,000  Level FlightAware ADS-B
Sun 01:03:02 AM 51.3949 -8.5494 72° East 464 534 35,000  Level FlightAware UK
Sun 01:03:25 AM 51.4210 -8.4500 72° East 518 596 35,000  Level FlightAware ADS-B
Sun 01:03:32 AM 51.4168 -8.4410 72° East 462 532 35,000  Level FlightAware UK
Sun 01:04:02 AM 51.4389 -8.3323 72° East 464 534 35,000  Level FlightAware UK
Sun 01:04:08 AM 51.4550 -8.2840 72° East 520 598 35,000  Level FlightAware ADS-B
Sun 01:04:32 AM 51.4609 -8.2224 72° East 462 532 35,000  Level FlightAware UK
Sun 01:04:48 AM 51.4840 -8.1390 72° East 523 602 35,000  Level FlightAware ADS-B
Sun 01:05:15 AM 51.5050 -8.0370 72° East 523 602 35,000  Level FlightAware ADS-B
Sun 01:05:33 AM 51.5057 -8.0018 72° East 462 532 35,000  Level FlightAware UK
Sun 01:06:01 AM 51.5390 -7.8660 72° East 526 605 35,000  Level FlightAware ADS-B
Sun 01:06:03 AM 51.5278 -7.8912 72° East 464 534 35,000  Level FlightAware UK
Sun 01:06:33 AM 51.5498 -7.7803 72° East 464 534 35,000  Level FlightAware UK
Sun 01:06:43 AM 51.5700 -7.7100 72° East 527 606 35,000  Level FlightAware ADS-B
Sun 01:07:03 AM 51.5719 -7.6688 72° East 466 536 35,000  Level FlightAware UK
Sun 01:07:26 AM 51.6010 -7.5540 72° East 529 609 35,000  Level FlightAware ADS-B
Sun 01:08:04 AM 51.6290 -7.4090 73° East 531 611 35,000  Level FlightAware ADS-B
Sun 01:08:52 AM 51.6640 -7.2290 73° East 533 613 35,000  Level FlightAware ADS-B
Sun 01:09:32 AM 51.6930 -7.0780 73° East 535 616 35,000  Level FlightAware ADS-B
Sun 01:09:51 AM 51.6938 -7.0381 73° East 460 529 35,000  Level FlightAware UK
Sun 01:10:12 AM 51.7230 -6.9260 73° East 537 618 35,000  Level FlightAware ADS-B
Sun 01:10:51 AM 51.7361 -6.8094 73° East 460 529 35,000  Level FlightAware UK
Sun 01:10:56 AM 51.7550 -6.7560 73° East 539 620 35,000  Level FlightAware ADS-B
Sun 01:11:21 AM 51.7576 -6.6944 73° East 460 529 35,000  Level FlightAware UK
Sun 01:11:29 AM 51.7760 -6.6460 73° East 540 621 35,000  Level FlightAware ADS-B
Sun 01:12:03 AM 51.7632 -6.5305 73° East 458 527 35,000  Level FlightAware UK
Sun 01:12:09 AM 51.7790 -6.4820 73° East 522 601 35,000  Level FlightAware ADS-B
Sun 01:12:33 AM 51.7556 -6.4146 73° East 460 529 35,000  Level FlightAware UK
Sun 01:12:54 AM 51.7670 -6.3020 73° East 524 603 35,000  Level FlightAware ADS-B
Sun 01:13:33 AM 51.7380 -6.1819 73° East 460 529 35,000  Level FlightAware UK
Sun 01:13:34 AM 51.7570 -6.1540 73° East 527 606 35,000  Level FlightAware ADS-B
Sun 01:14:09 AM 51.7294 -6.0418 73° East 462 532 35,000  Level FlightAware UK
Sun 01:14:19 AM 51.7460 -5.9680 73° East 532 612 35,000  Level FlightAware ADS-B
Sun 01:14:39 AM 51.7225 -5.9230 73° East 462 532 35,000  Level FlightAware UK
Sun 01:15:01 AM 51.7380 -5.8170 73° East 535 616 35,000  Level FlightAware ADS-B
Sun 01:15:39 AM 51.7080 -5.6857 73° East 464 534 35,000  Level FlightAware UK
Sun 01:16:15 AM 51.6995 -5.5422 95° East 466 536 35,000  Level FlightAware UK
Sun 01:16:22 AM 51.7270 -5.6360 95° East 537 618 35,000 -400 Level FlightAware ADS-B
Sun 01:16:45 AM 51.6920 -5.4227 95° East 464 534 34,800 -585 Descending FlightAware UK
Sun 01:17:03 AM 51.7080 -5.3120 95° East 536 617 34,600 -900 Descending FlightAware ADS-B
Sun 01:17:45 AM 51.6757 -5.1845 95° East 464 534 33,900 -875 Descending FlightAware UK
Sun 01:17:51 AM 51.6960 -5.1260 95° East 530 610 33,900 -800 Level FlightAware ADS-B
Sun 01:18:15 AM 51.6675 -5.0665 95° East 462 532 33,500 -1,024 Descending FlightAware UK
Sun 01:18:32 AM 51.6860 -4.9660 95° East 525 604 33,200 -526 Descending FlightAware ADS-B
Sun 01:19:12 AM 51.6760 -4.8130 96° East 518 596 33,000 -152 Descending FlightAware ADS-B
Sun 01:19:51 AM 51.6414 -4.6979 96° East 458 527 33,000  Level FlightAware UK
Sun 01:19:56 AM 51.6640 -4.6450 96° East 517 595 33,000  Level FlightAware ADS-B
Sun 01:20:21 AM 51.6331 -4.5833 96° East 462 532 33,000  Level FlightAware UK
Sun 01:20:38 AM 51.6530 -4.4820 96° East 518 596 33,000  Level FlightAware ADS-B
Sun 01:21:16 AM 51.6430 -4.3390 96° East 519 597 33,000 -411 Level FlightAware ADS-B
Sun 01:21:51 AM 51.6075 -4.2372 96° East 460 529 32,500 -913 Descending FlightAware UK
Sun 01:22:02 AM 51.6300 -4.1610 96° East 521 600 32,300 -1,667 Descending FlightAware ADS-B
Sun 01:22:27 AM 51.5967 -4.0994 96° East 464 534 31,500 -1,800 Descending FlightAware UK
Sun 01:22:42 AM 51.6180 -4.0040 96° East 530 610 31,100 -1,600 Descending FlightAware ADS-B
Sun 01:22:57 AM 51.5872 -3.9810 96° East 470 541 30,700 -1,200 Descending FlightAware UK
Sun 01:23:22 AM 51.6070 -3.8490 96° East 529 609 30,300 -900 Descending FlightAware ADS-B
Sun 01:23:57 AM 51.5689 -3.7468 96° East 470 541 29,800 -800 Descending FlightAware UK
Sun 01:24:07 AM 51.5930 -3.6750 96° East 522 601 29,700 -1,000 Descending FlightAware ADS-B
Sun 01:24:27 AM 51.5596 -3.6310 96° East 468 539 29,300 -955 Descending FlightAware UK
Sun 01:24:51 AM 51.5800 -3.5050 96° East 518 596 29,000 -947 Descending FlightAware ADS-B
Sun 01:25:24 AM 51.5700 -3.3840 96° East 516 594 28,400 -1,167 Descending FlightAware ADS-B
Sun 01:25:27 AM 51.5404 -3.4013 96° East 464 534 28,300 -1,091 Descending FlightAware UK
Sun 01:25:57 AM 51.5309 -3.2875 96° East 464 534 27,800 -837 Descending FlightAware UK
Sun 01:26:10 AM 51.5560 -3.2080 96° East 511 588 27,700 -774 Descending FlightAware ADS-B
Sun 01:26:28 AM 51.5211 -3.1734 96° East 462 532 27,400 -900 Descending FlightAware UK
Sun 01:26:50 AM 51.5440 -3.0610 96° East 507 583 27,100 -1,000 Descending FlightAware ADS-B
Sun 01:27:34 AM 51.4998 -2.9274 96° East 458 527 26,300 -1,067 Descending FlightAware UK
Sun 01:27:35 AM 51.5300 -2.8910 96° East 501 577 26,300 -2,200 Level FlightAware ADS-B
Sun 01:28:04 AM 51.4898 -2.8165 96° East 454 522 25,200 -1,902 Descending FlightAware UK
Sun 01:28:16 AM 51.5170 -2.7430 96° East 500 575 25,000 -1,600 Descending FlightAware ADS-B
Sun 01:28:34 AM 51.4800 -2.7057 96° East 452 520 24,400 -1,610 Descending FlightAware UK
Sun 01:28:57 AM 51.5037 -2.5909 96° East 495 570 23,900 -1,111 Descending FlightAware ADS-B
Sun 01:29:28 AM 51.4937 -2.4789 98° East 492 566 23,400 -1,161 Descending FlightAware ADS-B
Sun 01:29:59 AM 51.4838 -2.3679 98° East 488 562 22,700 -1,810 Descending FlightAware ADS-B
Sun 01:30:31 AM 51.4733 -2.2524 98° East 483 556 21,500 -2,129 Descending FlightAware ADS-B
Sun 01:31:01 AM 51.4635 -2.1466 98° East 477 549 20,500 -2,091 Descending FlightAware ADS-B
Sun 01:31:37 AM 51.4520 -2.0225 98° East 470 541 19,200 -2,091 Descending FlightAware ADS-B
Sun 01:32:07 AM 51.4422 -1.9200 99° East 465 535 18,200 -2,066 Descending FlightAware ADS-B
Sun 01:32:38 AM 51.4324 -1.8164 99° East 457 526 17,100 -2,164 Descending FlightAware ADS-B
Sun 01:33:08 AM 51.4229 -1.7165 99° East 451 519 16,000 -2,129 Descending FlightAware ADS-B
Sun 01:33:40 AM 51.4127 -1.6135 99° East 444 511 14,900 -2,160 Descending FlightAware ADS-B
Sun 01:33:58 AM 51.3727 -1.5780 99° East 406 467 14,200 -1,800 Descending FlightAware UK
Sun 01:34:10 AM 51.4019 -1.5165 99° East 430 495 14,000 -600 Descending FlightAware ADS-B
Sun 01:34:28 AM 51.3603 -1.4851 99° East 378 435 13,900 -364 Descending FlightAware UK
Sun 01:34:43 AM 51.3885 -1.4197 99° East 399 459 13,800 -800 Descending FlightAware ADS-B
Sun 01:34:58 AM 51.3476 -1.3988 99° East 358 412 13,500 -1,000 Descending FlightAware UK
Sun 01:35:13 AM 51.3761 -1.3357 99° East 375 432 13,300 -800 Descending FlightAware ADS-B
Sun 01:35:28 AM 51.3355 -1.3175 99° East 334 384 13,100 -600 Descending FlightAware UK
Sun 01:35:43 AM 51.3643 -1.2566 99° East 351 404 13,000 -545 Descending FlightAware ADS-B
Sun 01:36:12 AM 51.3537 -1.1846 103° East 338 389 12,700 -792 Descending FlightAware ADS-B
Sun 01:36:36 AM 51.3485 -1.1277 98° East 335 386 12,300 -778 Descending FlightAware ADS-B
Sun 01:37:06 AM 51.3470 -1.0535 92° East 329 379 12,000 -692 Descending FlightAware ADS-B
Sun 01:37:28 AM 51.3113 -1.0195 92° East 296 341 11,700 -800 Descending FlightAware UK
Sun 01:37:36 AM 51.3465 -0.9798 92° East 331 381 11,600 -774 Descending FlightAware ADS-B
Sun 01:37:59 AM 51.3109 -0.9452 92° East 296 341 11,300 -581 Descending FlightAware UK
Sun 01:38:07 AM 51.3461 -0.9061 92° East 328 377 11,300 -600 Level FlightAware ADS-B
Sun 01:38:29 AM 51.3104 -0.8719 92° East 294 338 11,000 -800 Descending FlightAware UK
Sun 01:38:37 AM 51.3454 -0.8336 92° East 325 374 10,900 -632 Descending FlightAware ADS-B
Sun 01:39:07 AM 51.3448 -0.7616 91° East 323 372 10,600 -700 Descending FlightAware ADS-B
Sun 01:39:37 AM 51.3439 -0.6902 91° East 316 364 10,200 -720 Descending FlightAware ADS-B
Sun 01:39:57 AM 51.3432 -0.6436 91° East 307 353 10,000 -324 Descending FlightAware ADS-B
Sun 01:40:14 AM 51.3429 -0.6071 91° East 292 336 10,000 -158 Level FlightAware ADS-B
Sun 01:40:35 AM 51.3070 -0.5799 91° East 260 299 9,900  Descending FlightAware UK
Sun 01:40:44 AM 51.3422 -0.5436 91° East 279 321 10,000 200 Climbing FlightAware ADS-B
Sun 01:41:05 AM 51.3062 -0.5174 91° East 262 302 10,000  Level FlightAware UK
Sun 01:41:15 AM 51.3412 -0.4810 91° East 278 320 10,000  Level FlightAware ADS-B
Sun 01:41:41 AM 51.3405 -0.4279 91° East 277 319 10,000  Level FlightAware ADS-B
Sun 01:41:47 AM 51.3409 -0.4148 87° East 278 320 10,000  Level FlightAware ADS-B
Sun 01:41:51 AM 51.3415 -0.4080 82° East 277 319 10,000  Level FlightAware ADS-B
Sun 01:41:54 AM 51.3426 -0.4010 76° East 276 318 10,000 -1,000 Level FlightAware ADS-B
Sun 01:41:57 AM 51.3440 -0.3949 70° East 277 319 9,900 -857 Descending FlightAware ADS-B
Sun 01:42:01 AM 51.3460 -0.3885 64° Northeast 275 316 9,900 -667 Level FlightAware ADS-B
Sun 01:42:06 AM 51.3496 -0.3801 56° Northeast 273 314 9,800 -667 Descending FlightAware ADS-B
Sun 01:42:10 AM 51.3537 -0.3735 45° Northeast 272 313 9,800 -750 Level FlightAware ADS-B
Sun 01:42:14 AM 51.3570 -0.3692 39° Northeast 270 311 9,700 -1,333 Descending FlightAware ADS-B
Sun 01:42:19 AM 51.3622 -0.3641 32° Northeast 268 308 9,600 -1,333 Descending FlightAware ADS-B
Sun 01:42:23 AM 51.3673 -0.3607 22° Northeast 265 305 9,500 -857 Descending FlightAware ADS-B
Sun 01:42:26 AM 51.3711 -0.3589 17° North 264 304 9,500 -857 Level FlightAware ADS-B
Sun 01:42:30 AM 51.3756 -0.3577 North 263 303 9,400 -1,500 Descending FlightAware ADS-B
Sun 01:42:34 AM 51.3799 -0.3574 North 262 302 9,300 -1,714 Descending FlightAware ADS-B
Sun 01:42:37 AM 51.3843 -0.3572 North 261 300 9,200 -1,385 Descending FlightAware ADS-B
Sun 01:42:47 AM 51.3962 -0.3574 359° North 261 300 9,000 -1,250 Descending FlightAware ADS-B
Sun 01:43:01 AM 51.4125 -0.3572 360° North 263 303 8,700 -1,263 Descending FlightAware ADS-B
Sun 01:43:06 AM 51.4184 -0.3565 North 264 304 8,600 -1,500 Descending FlightAware ADS-B
Sun 01:43:09 AM 51.4222 -0.3553 11° North 266 306 8,500 -1,500 Descending FlightAware ADS-B
Sun 01:43:14 AM 51.4279 -0.3523 18° North 267 307 8,400 -1,500 Descending FlightAware ADS-B
Sun 01:43:17 AM 51.4314 -0.3496 25° Northeast 268 308 8,300 -1,000 Descending FlightAware ADS-B
Sun 01:43:20 AM 51.4348 -0.3461 33° Northeast 269 310 8,300 -1,000 Level FlightAware ADS-B
Sun 01:43:29 AM 51.4426 -0.3345 43° Northeast 270 311 8,100 -1,286 Descending FlightAware ADS-B
Sun 01:43:34 AM 51.4464 -0.3253 57° Northeast 269 310 8,000 -1,636 Descending FlightAware ADS-B
Sun 01:43:40 AM 51.4492 -0.3146 67° East 268 308 7,800 -1,333 Descending FlightAware ADS-B
Sun 01:43:43 AM 51.4502 -0.3083 76° East 267 307 7,800 -667 Level FlightAware ADS-B
Sun 01:43:49 AM 51.4509 -0.2982 84° East 265 305 7,700 -1,333 Descending FlightAware ADS-B
Sun 01:43:52 AM 51.4508 -0.2914 91° East 265 305 7,600 -1,667 Descending FlightAware ADS-B
Sun 01:44:07 AM 51.4491 -0.2618 95° East 265 305 7,200 -1,161 Descending FlightAware ADS-B
Sun 01:44:23 AM 51.4473 -0.2319 96° East 264 304 7,000 -462 Descending FlightAware ADS-B
Sun 01:44:33 AM 51.4460 -0.2104 96° East 264 304 7,000 -429 Level FlightAware ADS-B
Sun 01:44:37 AM 51.4455 -0.2041 97° East 263 303 6,900 -857 Descending FlightAware ADS-B
Sun 01:44:40 AM 51.4448 -0.1976 100° East 262 302 6,900 -667 Level FlightAware ADS-B
Sun 01:44:46 AM 51.4426 -0.1875 109° East 258 297 6,800 -1,286 Descending FlightAware ADS-B
Sun 01:44:54 AM 51.4373 -0.1736 121° Southeast 254 292 6,600 -1,000 Descending FlightAware ADS-B
Sun 01:45:10 AM 51.4271 -0.1499 125° Southeast 253 291 6,400 -1,161 Descending FlightAware ADS-B
Sun 01:45:25 AM 51.4173 -0.1263 124° Southeast 254 292 6,000 -800 Descending FlightAware ADS-B
Sun 01:45:40 AM 51.4075 -0.1025 123° Southeast 257 296 6,000  Level FlightAware ADS-B
Sun 01:45:53 AM 51.3993 -0.0819 123° Southeast 262 302 6,000  Level FlightAware ADS-B
Sun 01:45:57 AM 51.3970 -0.0750 118° Southeast 264 304 6,000  Level FlightAware ADS-B
Sun 01:46:01 AM 51.3951 -0.0666 110° East 268 308 6,000  Level FlightAware ADS-B
Sun 01:46:07 AM 51.3939 -0.0554 100° East 271 312 6,000  Level FlightAware ADS-B
Sun 01:46:10 AM 51.3937 -0.0488 93° East 272 313 6,000  Level FlightAware ADS-B
Sun 01:46:14 AM 51.3941 -0.0410 85° East 274 315 6,000  Level FlightAware ADS-B
Sun 01:46:19 AM 51.3953 -0.0321 78° East 274 315 6,000  Level FlightAware ADS-B
Sun 01:46:23 AM 51.3972 -0.0237 70° East 274 315 6,000  Level FlightAware ADS-B
Sun 01:46:32 AM 51.4031 -0.0086 58° Northeast 273 314 6,000  Level FlightAware ADS-B
Sun 01:46:48 AM 51.4162 0.0151 48° Northeast 275 316 6,000  Level FlightAware ADS-B
Sun 01:46:59 AM 51.4259 0.0329 49° Northeast 274 315 6,000  Level FlightAware ADS-B
Sun 01:47:04 AM 51.4301 0.0394 44° Northeast 272 313 6,000  Level FlightAware ADS-B
Sun 01:47:07 AM 51.4333 0.0436 39° Northeast 270 311 6,000  Level FlightAware ADS-B
Sun 01:47:10 AM 51.4365 0.0467 31° Northeast 267 307 6,000  Level FlightAware ADS-B
Sun 01:47:18 AM 51.4455 0.0524 22° Northeast 256 295 6,000  Level FlightAware ADS-B
Sun 01:47:23 AM 51.4502 0.0539 11° North 246 283 6,000  Level FlightAware ADS-B
Sun 01:47:30 AM 51.4580 0.0551 North 236 272 6,000  Level FlightAware ADS-B
Sun 01:47:37 AM 51.4655 0.0552 North 221 254 6,000  Level FlightAware ADS-B
Sun 01:47:43 AM 51.4712 0.0535 349° North 213 245 6,000  Level FlightAware ADS-B
Sun 01:47:47 AM 51.4747 0.0512 338° Northwest 203 234 6,000 -750 Level FlightAware ADS-B
Sun 01:47:51 AM 51.4780 0.0480 328° Northwest 197 227 5,900 -750 Descending FlightAware ADS-B
Sun 01:47:55 AM 51.4807 0.0445 321° Northwest 190 219 5,900 -857 Level FlightAware ADS-B
Sun 01:47:58 AM 51.4824 0.0413 311° West 187 215 5,800 -857 Descending FlightAware ADS-B
Sun 01:48:02 AM 51.4848 0.0362 307° West 183 211 5,800 -545 Level FlightAware ADS-B
Sun 01:48:20 AM 51.4925 0.0166 302° West 179 206 5,600 -545 Descending FlightAware ADS-B
Sun 01:48:24 AM 51.4940 0.0120 297° West 177 204 5,600 -750 Level FlightAware ADS-B
Sun 01:48:28 AM 51.4952 0.0068 290° West 173 199 5,500 -667 Descending FlightAware ADS-B
Sun 01:48:33 AM 51.4961 0.0010 284° West 173 199 5,500 -923 Level FlightAware ADS-B
Sun 01:48:41 AM 51.4972 -0.0092 280° West 173 199 5,300 -1,286 Descending FlightAware ADS-B
Sun 01:48:47 AM 51.4979 -0.0167 279° West 171 197 5,200 -857 Descending FlightAware ADS-B
Sun 01:49:02 AM 51.4984 -0.0357 272° West 168 193 5,000 -750 Descending FlightAware ADS-B
Sun 01:49:11 AM 51.4984 -0.0468 270° West 163 188 4,900 -1,000 Descending FlightAware ADS-B
Sun 01:49:26 AM 51.4979 -0.0648 267° West 159 183 4,600 -1,000 Descending FlightAware ADS-B
Sun 01:49:41 AM 51.4975 -0.0824 268° West 157 181 4,400 -774 Descending FlightAware ADS-B
Sun 01:49:57 AM 51.4974 -0.1009 270° West 157 181 4,200 -909 Descending FlightAware ADS-B
Sun 01:50:14 AM 51.4972 -0.1198 269° West 157 181 3,900 -909 Descending FlightAware ADS-B
Sun 01:50:30 AM 51.4969 -0.1381 268° West 156 180 3,700 -774 Descending FlightAware ADS-B
Sun 01:50:45 AM 51.4967 -0.1561 269° West 157 181 3,500 -909 Descending FlightAware ADS-B
Sun 01:51:03 AM 51.4964 -0.1768 269° West 157 181 3,200 -882 Descending FlightAware ADS-B
Sun 01:51:19 AM 51.4962 -0.1958 269° West 157 181 3,000 -833 Descending FlightAware ADS-B
Sun 01:51:39 AM 51.4958 -0.2188 268° West 156 180 2,700 -837 Descending FlightAware ADS-B
Sun 01:52:02 AM 51.4953 -0.2451 268° West 152 175 2,400 -875 Descending FlightAware ADS-B
Sun 01:52:27 AM 51.4950 -0.2732 269° West 152 175 2,000 -933 Descending FlightAware ADS-B
Sun 01:52:47 AM 51.4653 -0.2987 269° West 166 191 1,700 -706 Descending FlightAware UK
Sun 01:53:01 AM 51.4940 -0.3090 269° West 148 170 1,600 -698 Descending FlightAware ADS-B (CYTZ)
Sun 01:53:30 AM 51.4940 -0.3390 270° West 141 162 1,200 -783 Descending FlightAware ADS-B (CYTZ)
Sun 01:53:47 AM 51.4652 -0.3625 270° West 156 180 1,000 -692 Descending FlightAware UK
Sun 01:53:56 AM 51.4930 -0.3660 270° West 144 166 900 -811 Descending FlightAware ADS-B
Sun 01:54:24 AM 51.4920 -0.4000 267° West 150 173 500 -933 Descending FlightAware ADS-B
Sun 01:54:41 AM 51.4649 -0.4213 267° West 156 180 200 -98 Descending FlightAware UK
Sun 01:55:25 AM 51.4920 -0.4360 267° West 149 171 400 273 Climbing FlightAware ADS-B
Sun 01:58:00 AM 51.4667 -0.4500 90° East  Level FlightAware Approximate

Login

Don't have an account? Register now (free) for customized features, flight alerts, and more!